Time;durP1;ratioP1;P1;durP2;ratioP2;P2;SDS_P1;SDS_P2;PMS_P1;PMS_P2;Temp;Humidity;BMP_temperature;BMP_pressure;BME280_temperature;BME280_humidity;BME280_pressure;Samples;Min_cycle;Max_cycle;Signal;HPM_P1;HPM_P2
2023/08/25 00:02:11;;;;;;;6.88;6.15;;;;;;;23.83;100.00;95822.72;5093124;27;20024;-66
2023/08/25 00:04:37;;;;;;;8.85;6.10;;;;;;;23.80;100.00;95823.16;5111974;27;20028;-66
2023/08/25 00:07:02;;;;;;;10.00;5.97;;;;;;;23.78;100.00;95817.19;5102856;27;20023;-66
2023/08/25 00:09:28;;;;;;;6.60;6.00;;;;;;;23.73;100.00;95819.75;5113632;27;20099;-67
2023/08/25 00:11:53;;;;;;;11.00;6.05;;;;;;;23.77;100.00;95815.56;5113380;27;20039;-67
2023/08/25 00:14:18;;;;;;;6.63;5.93;;;;;;;23.74;100.00;95824.06;5107989;27;20030;-66
2023/08/25 00:16:44;;;;;;;8.05;6.80;;;;;;;23.67;100.00;95818.75;5111950;27;20034;-66
2023/08/25 00:19:09;;;;;;;7.70;6.18;;;;;;;23.72;100.00;95820.78;5102825;27;20054;-67
2023/08/25 00:21:35;;;;;;;7.40;6.07;;;;;;;23.71;100.00;95822.63;5107549;27;20603;-66
2023/08/25 00:24:00;;;;;;;6.45;5.95;;;;;;;23.73;100.00;95823.22;5115038;27;20043;-66
2023/08/25 00:26:26;;;;;;;6.38;5.78;;;;;;;23.75;100.00;95820.34;5113551;27;20016;-66
2023/08/25 00:28:51;;;;;;;6.28;5.80;;;;;;;23.67;100.00;95820.63;5107432;27;20062;-67
2023/08/25 00:31:16;;;;;;;6.68;5.97;;;;;;;23.52;100.00;95829.84;5103702;27;20023;-66
2023/08/25 00:33:49;;;;;;;7.90;6.25;;;;;;;23.45;100.00;95823.72;5116157;27;20080;-66
2023/08/25 00:36:15;;;;;;;7.88;7.10;;;;;;;23.41;100.00;95823.34;5101110;27;20024;-66
2023/08/25 00:38:40;;;;;;;6.70;6.20;;;;;;;23.31;100.00;95821.16;5111861;27;20081;-67
2023/08/25 00:41:05;;;;;;;9.00;6.45;;;;;;;23.28;100.00;95815.38;5114439;27;20031;-66
2023/08/25 00:43:33;;;;;;;7.32;5.97;;;;;;;23.27;100.00;95832.53;5103778;27;20095;-67
2023/08/25 00:45:59;;;;;;;7.00;6.05;;;;;;;23.24;100.00;95833.78;5119348;27;20019;-67
2023/08/25 00:48:25;;;;;;;6.70;6.10;;;;;;;23.22;100.00;95835.88;5105697;27;20062;-66
2023/08/25 00:50:51;;;;;;;8.20;6.13;;;;;;;23.21;100.00;95831.53;5106475;27;20483;-66
2023/08/25 00:53:17;;;;;;;6.50;5.90;;;;;;;23.15;100.00;95838.59;5106247;27;20020;-66
2023/08/25 00:55:43;;;;;;;6.55;5.95;;;;;;;23.12;100.00;95828.31;5113022;27;20027;-67
2023/08/25 00:58:09;;;;;;;7.60;6.05;;;;;;;23.12;100.00;95824.78;5102454;27;20027;-66
2023/08/25 01:00:35;;;;;;;7.22;6.10;;;;;;;23.06;100.00;95823.78;5097838;27;20023;-66
2023/08/25 01:03:01;;;;;;;6.50;5.80;;;;;;;22.98;100.00;95830.22;5103395;27;20027;-66
2023/08/25 01:05:26;;;;;;;6.70;5.97;;;;;;;23.01;100.00;95829.81;5113488;27;20154;-66
2023/08/25 01:07:52;;;;;;;6.47;5.90;;;;;;;23.01;100.00;95824.47;5106834;27;20023;-67
2023/08/25 01:10:25;;;;;;;6.35;5.63;;;;;;;22.91;100.00;95829.47;5109194;27;20081;-67
2023/08/25 01:12:58;;;;;;;6.45;5.85;;;;;;;22.75;100.00;95826.25;5113209;27;20119;-66
2023/08/25 01:15:32;;;;;;;9.25;6.53;;;;;;;22.77;100.00;95826.06;5109032;27;20512;-66
2023/08/25 01:18:10;;;;;;;7.17;6.47;;;;;;;22.81;100.00;95835.31;5105118;28;20174;-66
2023/08/25 01:20:37;;;;;;;7.22;6.45;;;;;;;22.81;100.00;95838.00;5107560;27;20032;-67
2023/08/25 01:23:27;;;;;;;8.75;6.88;;;;;;;22.77;100.00;95852.88;5108502;27;20069;-66
2023/08/25 01:25:53;;;;;;;9.98;6.15;;;;;;;22.69;100.00;95840.53;5110305;27;20050;-66
2023/08/25 01:28:20;;;;;;;7.28;6.50;;;;;;;22.71;100.00;95843.81;5105104;27;20073;-67
2023/08/25 01:30:48;;;;;;;7.30;6.60;;;;;;;22.72;100.00;95837.41;5108680;27;20102;-66
2023/08/25 01:33:15;;;;;;;7.68;6.97;;;;;;;22.75;100.00;95833.50;5110898;27;20024;-66
2023/08/25 01:35:47;;;;;;;7.10;6.15;;;;;;;22.70;100.00;95844.88;5116220;27;20034;-67
2023/08/25 01:38:36;;;;;;;8.77;6.18;;;;;;;22.69;100.00;95840.53;5113080;27;20076;-66
2023/08/25 01:41:01;;;;;;;7.00;6.45;;;;;;;22.69;100.00;95831.69;5111511;27;20027;-67
2023/08/25 01:43:32;;;;;;;10.80;6.10;;;;;;;22.67;100.00;95829.19;5106441;27;20579;-66
2023/08/25 01:45:59;;;;;;;8.77;7.30;;;;;;;22.72;100.00;95825.88;5108752;27;20046;-66
2023/08/25 01:48:26;;;;;;;6.45;5.85;;;;;;;22.72;100.00;95828.56;5108263;28;20080;-66
2023/08/25 01:50:52;;;;;;;6.85;6.25;;;;;;;22.61;100.00;95846.97;5114640;27;20580;-66
2023/08/25 01:53:18;;;;;;;7.18;6.53;;;;;;;22.50;100.00;95839.63;5104531;27;20047;-67
2023/08/25 01:55:44;;;;;;;9.13;6.15;;;;;;;22.41;100.00;95835.47;5097635;27;20069;-66
2023/08/25 01:58:09;;;;;;;7.78;6.20;;;;;;;22.39;100.00;95837.56;5116839;27;20027;-66
2023/08/25 02:00:35;;;;;;;8.10;6.85;;;;;;;22.39;100.00;95821.47;5103080;27;20015;-66
2023/08/25 02:03:00;;;;;;;6.88;6.25;;;;;;;22.45;100.00;95817.97;5102508;27;20068;-66
2023/08/25 02:05:26;;;;;;;7.25;6.30;;;;;;;22.47;100.00;95821.28;5108079;27;20280;-66
2023/08/25 02:07:51;;;;;;;9.90;9.00;;;;;;;22.45;100.00;95815.28;5108200;27;20023;-66
2023/08/25 02:10:16;;;;;;;8.73;7.18;;;;;;;22.43;100.00;95809.28;5098637;28;20023;-66
2023/08/25 02:12:42;;;;;;;8.07;7.20;;;;;;;22.41;100.00;95806.81;5113327;27;20032;-66
2023/08/25 02:15:08;;;;;;;7.90;7.20;;;;;;;22.39;100.00;95811.56;5117347;27;20027;-66
2023/08/25 02:17:33;;;;;;;6.88;6.28;;;;;;;22.40;100.00;95807.03;5104301;27;20034;-66
2023/08/25 02:19:59;;;;;;;8.38;6.80;;;;;;;22.37;100.00;95797.56;5114176;27;20023;-66
2023/08/25 02:22:24;;;;;;;7.20;6.45;;;;;;;22.36;100.00;95805.81;5117316;27;20398;-66
2023/08/25 02:24:50;;;;;;;7.63;6.93;;;;;;;22.36;100.00;95803.97;5095838;27;20670;-67
2023/08/25 02:27:15;;;;;;;7.65;7.05;;;;;;;22.29;100.00;95817.41;5106822;27;20396;-66
2023/08/25 02:29:41;;;;;;;7.03;6.43;;;;;;;22.27;100.00;95807.91;5114180;27;20047;-67
2023/08/25 02:32:06;;;;;;;10.57;6.85;;;;;;;22.28;100.00;95798.81;5102351;28;20020;-66
2023/08/25 02:34:32;;;;;;;6.57;5.97;;;;;;;22.26;100.00;95791.00;5118085;27;20038;-66
2023/08/25 02:36:57;;;;;;;7.05;6.45;;;;;;;22.22;100.00;95787.13;5101986;27;20407;-66
2023/08/25 02:39:22;;;;;;;7.45;6.28;;;;;;;22.22;100.00;95787.13;5104094;28;20016;-67
2023/08/25 02:41:48;;;;;;;8.48;6.03;;;;;;;22.28;100.00;95782.75;5108180;27;20016;-66
2023/08/25 02:44:13;;;;;;;7.57;6.90;;;;;;;22.28;100.00;95783.56;5110681;27;20027;-66
2023/08/25 02:46:40;;;;;;;10.00;7.25;;;;;;;22.34;100.00;95776.53;5102933;27;20028;-67
2023/08/25 02:49:05;;;;;;;10.57;7.40;;;;;;;22.30;100.00;95792.22;5108213;27;20075;-66
2023/08/25 02:51:31;;;;;;;10.13;7.20;;;;;;;22.26;100.00;95774.94;5106619;27;20550;-67
2023/08/25 02:53:56;;;;;;;10.77;7.03;;;;;;;22.25;100.00;95770.59;5116147;27;20033;-66
2023/08/25 02:56:21;;;;;;;16.92;7.30;;;;;;;22.22;100.00;95768.34;5118081;28;20027;-66
2023/08/25 02:58:47;;;;;;;8.15;6.20;;;;;;;22.24;100.00;95744.00;5106326;28;20039;-66
2023/08/25 03:01:13;;;;;;;6.82;6.20;;;;;;;22.24;100.00;95760.91;5118004;28;20027;-66
2023/08/25 03:03:39;;;;;;;9.70;6.32;;;;;;;22.24;100.00;95744.81;5106486;28;20578;-66
2023/08/25 03:06:04;;;;;;;8.13;6.75;;;;;;;22.27;100.00;95746.25;5115876;28;20073;-66
2023/08/25 03:08:30;;;;;;;7.18;6.57;;;;;;;22.25;100.00;95741.09;5116379;28;20024;-66
2023/08/25 03:10:55;;;;;;;9.18;6.85;;;;;;;22.22;100.00;95736.19;5104810;28;20452;-66
2023/08/25 03:13:21;;;;;;;7.25;6.55;;;;;;;22.19;100.00;95747.31;5112146;28;20031;-66
2023/08/25 03:15:48;;;;;;;6.97;6.38;;;;;;;22.16;100.00;95742.38;5119195;28;20114;-66
2023/08/25 03:18:16;;;;;;;7.93;6.65;;;;;;;22.13;100.00;95729.41;5103966;28;20404;-67
2023/08/25 03:20:42;;;;;;;7.30;6.60;;;;;;;22.06;100.00;95745.50;5102494;28;20027;-67
2023/08/25 03:23:07;;;;;;;7.18;6.53;;;;;;;21.96;100.00;95745.97;5116022;28;20023;-66
2023/08/25 03:25:37;;;;;;;8.63;6.50;;;;;;;21.95;100.00;95733.59;5088888;28;20107;-66
2023/08/25 03:28:02;;;;;;;10.50;7.45;;;;;;;21.80;100.00;95739.22;5115821;28;20032;-66
2023/08/25 03:30:28;;;;;;;7.10;6.50;;;;;;;21.82;100.00;95753.25;5118164;28;20039;-66
2023/08/25 03:32:53;;;;;;;7.30;6.60;;;;;;;21.83;100.00;95741.50;5108690;28;20039;-66
2023/08/25 03:35:18;;;;;;;7.07;6.50;;;;;;;21.84;100.00;95745.81;5106650;28;20491;-66
2023/08/25 03:37:44;;;;;;;10.90;6.93;;;;;;;21.82;100.00;95736.34;5118379;28;20015;-66
2023/08/25 03:40:10;;;;;;;7.50;6.80;;;;;;;21.83;100.00;95740.69;5112733;28;20092;-66
2023/08/25 03:42:35;;;;;;;7.32;6.63;;;;;;;21.77;100.00;95741.50;5117497;28;20012;-66
2023/08/25 03:45:01;;;;;;;9.40;7.18;;;;;;;21.74;100.00;95740.91;5118311;28;20022;-67
2023/08/25 03:47:26;;;;;;;7.75;6.95;;;;;;;21.65;100.00;95739.50;5106481;28;20058;-66
2023/08/25 03:49:52;;;;;;;7.57;6.88;;;;;;;21.61;100.00;95738.25;5112405;28;20542;-66
2023/08/25 03:52:17;;;;;;;10.60;7.22;;;;;;;21.61;100.00;95748.97;5102840;28;20023;-66
2023/08/25 03:54:42;;;;;;;8.00;7.30;;;;;;;21.59;100.00;95737.63;5110179;28;20035;-66
2023/08/25 03:57:08;;;;;;;8.00;6.97;;;;;;;21.53;100.00;95751.84;5107742;28;20035;-66
2023/08/25 03:59:34;;;;;;;11.68;7.05;;;;;;;21.49;100.00;95751.47;5113848;28;20032;-66
2023/08/25 04:02:01;;;;;;;7.68;6.95;;;;;;;21.42;100.00;95748.78;5101532;28;20036;-66
2023/08/25 04:04:27;;;;;;;8.57;6.38;;;;;;;21.34;100.00;95757.06;5112417;27;20412;-66
2023/08/25 04:06:53;;;;;;;8.13;7.18;;;;;;;21.33;100.00;95745.50;5116679;27;20027;-66
2023/08/25 04:09:19;;;;;;;7.80;7.10;;;;;;;21.28;100.00;95750.69;5114414;27;20062;-67
2023/08/25 04:11:45;;;;;;;8.35;7.30;;;;;;;21.27;100.00;95746.34;5115801;27;20027;-66
2023/08/25 04:14:10;;;;;;;8.23;7.20;;;;;;;21.35;100.00;95755.19;5114479;27;20027;-66
2023/08/25 04:16:36;;;;;;;10.05;8.50;;;;;;;21.41;100.00;95762.38;5103483;27;20073;-66
2023/08/25 04:19:01;;;;;;;14.45;8.23;;;;;;;21.40;100.00;95750.84;5117717;27;20581;-66
2023/08/25 04:21:27;;;;;;;8.30;7.55;;;;;;;21.42;100.00;95747.94;5106240;27;20028;-66
2023/08/25 04:23:52;;;;;;;8.10;7.30;;;;;;;21.37;100.00;95751.28;5095444;27;20027;-66
2023/08/25 04:26:18;;;;;;;8.25;7.00;;;;;;;21.31;100.00;95757.44;5110681;27;20059;-66
2023/08/25 04:28:43;;;;;;;7.65;6.97;;;;;;;21.36;100.00;95754.16;5114944;27;20473;-66
2023/08/25 04:31:09;;;;;;;8.00;7.28;;;;;;;21.36;100.00;95759.50;5114865;27;20407;-66
2023/08/25 04:33:34;;;;;;;7.93;7.13;;;;;;;21.41;100.00;95755.19;5112174;27;20019;-66
2023/08/25 04:35:59;;;;;;;9.40;7.75;;;;;;;21.40;100.00;95763.41;5113272;27;20043;-66
2023/08/25 04:38:25;;;;;;;8.32;7.07;;;;;;;21.36;100.00;95760.34;5104060;27;20051;-66
2023/08/25 04:40:51;;;;;;;8.20;7.00;;;;;;;21.37;100.00;95761.16;5114597;27;20024;-66
2023/08/25 04:43:16;;;;;;;10.55;7.32;;;;;;;21.35;100.00;95768.56;5110643;27;20023;-66
2023/08/25 04:45:42;;;;;;;9.20;7.47;;;;;;;21.34;100.00;95767.78;5120313;27;20024;-66
2023/08/25 04:48:08;;;;;;;7.93;7.13;;;;;;;21.42;100.00;95769.38;5113905;27;20027;-66
2023/08/25 04:50:34;;;;;;;7.18;6.53;;;;;;;21.43;100.00;95774.53;5118056;27;20035;-66
2023/08/25 04:53:00;;;;;;;8.73;7.43;;;;;;;21.35;100.00;95779.28;5108619;27;20055;-66
2023/08/25 04:55:25;;;;;;;14.75;7.03;;;;;;;21.19;100.00;95789.38;5117735;27;20065;-66
2023/08/25 04:57:51;;;;;;;10.95;7.00;;;;;;;21.20;100.00;95787.53;5097693;27;20162;-66
2023/08/25 05:00:16;;;;;;;7.88;7.18;;;;;;;21.18;100.00;95796.59;5103946;27;20038;-66
2023/08/25 05:02:42;;;;;;;7.85;7.05;;;;;;;21.18;100.00;95790.41;5102624;27;20065;-66
2023/08/25 05:05:11;;;;;;;9.57;6.93;;;;;;;21.09;100.00;95797.00;5106698;28;20035;-67
2023/08/25 05:07:36;;;;;;;9.98;7.30;;;;;;;21.07;100.00;95805.22;5103089;27;20494;-66
2023/08/25 05:10:02;;;;;;;11.07;8.20;;;;;;;21.10;100.00;95788.75;5110140;28;20030;-66
2023/08/25 05:12:27;;;;;;;10.55;7.50;;;;;;;21.17;100.00;95797.63;5114630;27;20023;-63
2023/08/25 05:14:53;;;;;;;11.93;7.35;;;;;;;21.16;100.00;95796.00;5111688;27;20019;-63
2023/08/25 05:17:18;;;;;;;7.90;7.07;;;;;;;21.15;100.00;95796.19;5105223;27;20118;-63
2023/08/25 05:19:44;;;;;;;9.00;7.40;;;;;;;21.12;100.00;95802.78;5117836;27;20038;-64
2023/08/25 05:22:09;;;;;;;10.98;7.75;;;;;;;21.16;100.00;95821.91;5105964;28;20027;-63
2023/08/25 05:24:35;;;;;;;13.55;7.45;;;;;;;21.20;100.00;95817.78;5119490;27;20071;-64
2023/08/25 05:27:00;;;;;;;12.57;7.65;;;;;;;21.18;100.00;95818.00;5108201;27;20555;-64
2023/08/25 05:29:27;;;;;;;9.27;7.47;;;;;;;21.16;100.00;95817.41;5112635;27;20043;-64
2023/08/25 05:31:54;;;;;;;9.50;7.65;;;;;;;21.11;100.00;95829.75;5108501;27;20039;-63
2023/08/25 05:34:19;;;;;;;9.25;7.50;;;;;;;21.06;100.00;95841.06;5108606;27;20095;-63
2023/08/25 05:36:44;;;;;;;9.23;7.85;;;;;;;21.08;100.00;95830.97;5130587;27;20060;-63
2023/08/25 05:39:11;;;;;;;9.82;7.65;;;;;;;21.12;100.00;95837.59;5116613;27;20145;-63
2023/08/25 05:41:37;;;;;;;8.73;7.88;;;;;;;21.23;100.00;95828.13;5115696;27;20058;-63
2023/08/25 05:44:03;;;;;;;11.45;7.15;;;;;;;21.23;100.00;95829.94;5111345;27;20020;-63
2023/08/25 05:46:30;;;;;;;14.85;7.88;;;;;;;21.27;100.00;95825.81;5104212;27;21120;-63
2023/08/25 05:48:56;;;;;;;12.02;7.40;;;;;;;21.28;100.00;95811.41;5112381;27;20450;-63
2023/08/25 05:51:21;;;;;;;9.57;7.80;;;;;;;21.34;100.00;95810.59;5107564;27;20016;-63
2023/08/25 05:53:46;;;;;;;8.00;7.18;;;;;;;21.44;100.00;95805.63;5112781;27;20024;-63
2023/08/25 05:56:13;;;;;;;13.68;8.60;;;;;;;21.56;100.00;95805.03;5103308;27;20016;-63
2023/08/25 05:58:41;;;;;;;8.65;7.80;;;;;;;21.55;100.00;95792.63;5115811;27;20031;-63
2023/08/25 06:01:06;;;;;;;8.93;7.50;;;;;;;21.66;100.00;95805.44;5105708;27;20024;-63
2023/08/25 06:03:32;;;;;;;13.15;7.68;;;;;;;21.63;100.00;95808.50;5097769;28;20103;-63
2023/08/25 06:05:57;;;;;;;13.10;7.63;;;;;;;21.76;100.00;95805.00;5111475;27;20027;-64
2023/08/25 06:08:23;;;;;;;10.95;7.60;;;;;;;21.89;100.00;95798.78;5120560;27;20031;-63
2023/08/25 06:10:54;;;;;;;12.15;8.23;;;;;;;21.99;100.00;95795.66;5104326;27;20039;-64
2023/08/25 06:13:19;;;;;;;7.85;7.03;;;;;;;21.99;100.00;95790.28;5106195;27;20023;-64
2023/08/25 06:15:45;;;;;;;8.63;7.72;;;;;;;21.86;100.00;95801.88;5111959;27;20048;-63
2023/08/25 06:18:12;;;;;;;13.00;8.00;;;;;;;21.85;100.00;95802.91;5112789;27;20507;-64
2023/08/25 06:20:41;;;;;;;9.77;7.57;;;;;;;21.87;100.00;95800.84;5112572;27;20114;-63
2023/08/25 06:23:07;;;;;;;10.23;7.60;;;;;;;22.06;100.00;95783.03;5098218;27;20102;-63
2023/08/25 06:25:32;;;;;;;12.45;8.38;;;;;;;22.26;100.00;95792.84;5102061;28;20051;-63
2023/08/25 06:27:59;;;;;;;9.80;7.43;;;;;;;22.42;100.00;95775.44;5101049;28;20070;-64
2023/08/25 06:30:26;;;;;;;8.77;7.50;;;;;;;22.64;100.00;95777.81;5098661;27;20051;-64
2023/08/25 06:32:52;;;;;;;11.48;7.10;;;;;;;22.91;100.00;95770.41;5106861;27;20050;-64
2023/08/25 06:35:18;;;;;;;10.45;7.72;;;;;;;23.12;100.00;95755.81;5112005;28;20100;-64
2023/08/25 06:37:43;;;;;;;10.48;7.10;;;;;;;23.36;100.00;95765.94;5111578;27;20108;-63
2023/08/25 06:40:09;;;;;;;8.50;7.70;;;;;;;23.64;100.00;95770.84;5109152;27;20032;-64
2023/08/25 06:42:34;;;;;;;12.25;7.50;;;;;;;23.86;100.00;95773.88;5122918;27;20020;-64
2023/08/25 06:45:00;;;;;;;16.17;7.97;;;;;;;24.08;100.00;95767.28;5113684;27;20015;-64
2023/08/25 06:47:28;;;;;;;8.93;6.93;;;;;;;24.31;100.00;95761.16;5112842;27;20376;-64
2023/08/25 06:49:54;;;;;;;10.60;7.10;;;;;;;24.64;100.00;95748.31;5106744;28;20048;-64
2023/08/25 06:52:21;;;;;;;9.52;6.47;;;;;;;24.86;100.00;95757.50;5107648;27;20020;-64
2023/08/25 06:54:46;;;;;;;11.00;6.57;;;;;;;24.86;100.00;95760.19;5077325;28;20037;-63
2023/08/25 06:57:12;;;;;;;7.22;6.63;;;;;;;24.73;100.00;95768.47;5081840;28;20138;-64
2023/08/25 06:59:37;;;;;;;9.15;7.18;;;;;;;24.53;100.00;95779.50;5099965;28;20032;-64
2023/08/25 07:02:03;;;;;;;7.05;6.32;;;;;;;24.40;100.00;95796.66;5105214;28;20035;-63
2023/08/25 07:04:29;;;;;;;8.38;6.70;;;;;;;24.26;100.00;95796.00;5113164;28;20031;-63
2023/08/25 07:06:55;;;;;;;7.60;6.45;;;;;;;24.17;100.00;95822.38;5106820;28;20347;-64
2023/08/25 07:09:20;;;;;;;12.23;7.28;;;;;;;24.05;100.00;95837.63;5111258;28;20095;-64
2023/08/25 07:11:45;;;;;;;9.68;7.32;;;;;;;23.88;100.00;95852.47;5113019;28;20023;-64
2023/08/25 07:14:11;;;;;;;11.77;6.85;;;;;;;23.81;100.00;95867.81;5105557;28;20016;-64
2023/08/25 07:16:36;;;;;;;7.88;6.60;;;;;;;23.73;100.00;95874.28;5107163;28;20433;-63
2023/08/25 07:19:02;;;;;;;12.73;6.25;;;;;;;23.73;100.00;95884.25;5104258;28;20541;-64
2023/08/25 07:21:27;;;;;;;7.95;6.53;;;;;;;23.62;100.00;95899.22;5104220;28;20020;-64
2023/08/25 07:23:52;;;;;;;11.18;7.65;;;;;;;23.61;100.00;95903.75;5101719;28;20024;-64
2023/08/25 07:26:18;;;;;;;8.93;7.45;;;;;;;23.72;100.00;95910.28;5112336;28;20023;-64
2023/08/25 07:28:43;;;;;;;13.38;6.75;;;;;;;23.60;100.00;95920.13;5104043;28;20023;-64
2023/08/25 07:31:09;;;;;;;8.02;7.13;;;;;;;23.60;100.00;95928.19;5106166;28;20047;-64
2023/08/25 07:33:34;;;;;;;11.57;7.22;;;;;;;23.64;100.00;95932.06;5108934;28;20443;-64
2023/08/25 07:36:03;;;;;;;8.00;7.25;;;;;;;23.70;100.00;95927.69;5097291;28;20032;-64
2023/08/25 07:38:29;;;;;;;13.57;8.32;;;;;;;23.74;100.00;95936.94;5100277;28;20020;-64
2023/08/25 07:40:55;;;;;;;8.50;7.68;;;;;;;23.70;100.00;95941.13;5105663;27;20052;-64
2023/08/25 07:43:21;;;;;;;9.43;7.88;;;;;;;23.67;100.00;95945.06;5105376;27;20027;-64
2023/08/25 07:45:46;;;;;;;12.25;7.32;;;;;;;23.61;100.00;95954.00;5111407;27;20031;-64
2023/08/25 07:48:11;;;;;;;7.43;6.70;;;;;;;23.60;100.00;95955.03;5105653;27;20046;-64
2023/08/25 07:50:37;;;;;;;9.70;6.90;;;;;;;23.56;100.00;95969.97;5107799;27;20035;-64
2023/08/25 07:53:03;;;;;;;9.43;6.90;;;;;;;23.54;100.00;95961.25;5114315;27;20046;-64
2023/08/25 07:55:28;;;;;;;7.75;6.88;;;;;;;23.63;100.00;95988.69;5102292;27;20631;-64
2023/08/25 07:57:54;;;;;;;7.97;7.25;;;;;;;23.65;100.00;96017.00;5113364;27;20024;-64
2023/08/25 08:00:19;;;;;;;13.68;7.47;;;;;;;23.67;100.00;96041.00;5103920;27;20157;-64
2023/08/25 08:02:46;;;;;;;10.07;6.85;;;;;;;23.60;100.00;96065.22;5110663;27;20089;-64
2023/08/25 08:05:14;;;;;;;8.75;7.35;;;;;;;23.50;100.00;96078.28;5109752;28;20368;-64
2023/08/25 08:07:39;;;;;;;9.70;7.32;;;;;;;23.40;100.00;96087.63;5103754;27;20106;-64
2023/08/25 08:10:06;;;;;;;12.77;7.43;;;;;;;23.34;100.00;96099.25;5105182;27;20031;-64
2023/08/25 08:12:31;;;;;;;8.55;6.63;;;;;;;23.41;100.00;96109.94;5114770;27;20414;-64
2023/08/25 08:14:57;;;;;;;11.30;7.50;;;;;;;23.46;100.00;96113.63;5105706;27;20019;-65
2023/08/25 08:17:23;;;;;;;7.90;6.45;;;;;;;23.49;100.00;96115.06;5106925;27;20112;-66
2023/08/25 08:19:49;;;;;;;12.40;5.95;;;;;;;23.55;100.00;96114.22;5112069;27;20023;-65
2023/08/25 08:22:15;;;;;;;10.38;6.78;;;;;;;23.50;100.00;96105.13;5110159;27;20019;-65
2023/08/25 08:24:47;;;;;;;11.05;5.78;;;;;;;23.43;100.00;96127.50;5098708;27;20032;-64
2023/08/25 08:27:15;;;;;;;7.45;6.72;;;;;;;23.47;100.00;96138.66;5116926;27;20024;-66
2023/08/25 08:29:41;;;;;;;5.70;5.20;;;;;;;23.46;100.00;96131.63;5099622;27;20054;-65
2023/08/25 08:32:06;;;;;;;8.48;5.45;;;;;;;23.45;100.00;96111.19;5106097;27;20031;-64
2023/08/25 08:34:31;;;;;;;5.63;5.15;;;;;;;23.57;100.00;96098.69;5112969;27;20496;-65
2023/08/25 08:36:58;;;;;;;8.15;4.97;;;;;;;23.63;100.00;96107.78;5078531;28;20058;-66
2023/08/25 08:39:24;;;;;;;9.82;5.32;;;;;;;23.60;100.00;96137.75;5106859;27;20048;-65
2023/08/25 08:41:52;;;;;;;12.15;6.38;;;;;;;23.36;100.00;96184.97;5108577;27;20391;-64
2023/08/25 08:44:19;;;;;;;11.25;6.30;;;;;;;23.08;100.00;96208.31;5114770;27;20029;-66
2023/08/25 08:46:47;;;;;;;9.05;5.85;;;;;;;23.09;100.00;96218.03;5107111;27;20035;-66
2023/08/25 08:49:14;;;;;;;12.85;5.90;;;;;;;23.07;100.00;96209.34;5107130;27;20032;-64
2023/08/25 08:51:42;;;;;;;7.93;5.70;;;;;;;23.18;100.00;96210.59;5104022;27;20445;-65
2023/08/25 08:54:07;;;;;;;5.50;5.10;;;;;;;23.67;100.00;96197.69;5110891;27;20026;-65
2023/08/25 08:56:34;;;;;;;6.47;5.50;;;;;;;24.15;100.00;96195.63;5104960;27;20019;-64
2023/08/25 08:59:00;;;;;;;6.10;5.60;;;;;;;24.64;100.00;96195.91;5105013;27;20051;-64
2023/08/25 09:01:27;;;;;;;7.30;5.60;;;;;;;25.00;100.00;96180.09;5101334;27;20024;-64
2023/08/25 09:03:53;;;;;;;6.07;5.47;;;;;;;25.56;100.00;96153.22;5111778;27;20106;-65
2023/08/25 09:06:19;;;;;;;5.72;5.20;;;;;;;25.81;100.00;96136.91;5103918;27;20020;-65
2023/08/25 09:08:48;;;;;;;8.63;5.10;;;;;;;26.24;100.00;96112.69;5112845;27;20077;-65
2023/08/25 09:11:16;;;;;;;9.07;4.90;;;;;;;26.67;100.00;96099.97;5108144;27;20095;-66
2023/08/25 09:13:53;;;;;;;7.97;5.15;;;;;;;26.71;100.00;96093.03;5100195;28;20467;-66
2023/08/25 09:16:18;;;;;;;6.10;4.93;;;;;;;26.63;100.00;96086.09;5093662;28;20031;-65
2023/08/25 09:18:46;;;;;;;8.50;5.00;;;;;;;26.60;100.00;96087.38;5107803;27;20472;-65
2023/08/25 09:21:20;;;;;;;5.30;4.80;;;;;;;26.74;100.00;96081.75;5105486;27;20024;-66
2023/08/25 09:24:02;;;;;;;5.20;4.50;;;;;;;26.91;100.00;96075.66;5100790;28;20039;-65
2023/08/25 09:26:36;;;;;;;8.43;4.45;;;;;;;27.06;100.00;96058.97;5103050;27;20062;-65
2023/08/25 09:29:01;;;;;;;5.88;4.70;;;;;;;27.39;100.00;96054.75;5101036;28;20011;-65
2023/08/25 09:31:29;;;;;;;5.15;4.38;;;;;;;27.80;100.00;96046.63;5108489;27;20097;-65
2023/08/25 09:34:02;;;;;;;6.05;4.63;;;;;;;28.25;100.00;96029.53;5106145;27;20023;-65
2023/08/25 09:36:29;;;;;;;6.15;5.07;;;;;;;28.68;100.00;96020.97;5094591;28;20051;-64
2023/08/25 09:38:55;;;;;;;7.90;4.70;;;;;;;29.19;100.00;96011.88;5101987;27;20043;-66
2023/08/25 09:41:29;;;;;;;5.18;4.68;;;;;;;29.61;100.00;95997.69;5100496;28;20058;-66
2023/08/25 09:44:01;;;;;;;8.45;4.80;;;;;;;29.50;100.00;95990.53;5108110;27;20023;-65
2023/08/25 09:46:31;;;;;;;6.80;4.00;;;;;;;29.41;100.00;95972.00;5098537;28;20033;-65
2023/08/25 09:49:04;;;;;;;7.10;4.70;;;;;;;29.54;100.00;95951.00;5103170;27;20034;-65
2023/08/25 09:51:51;;;;;;;10.23;5.15;;;;;;;29.53;100.00;95922.25;5103886;27;20022;-65
2023/08/25 09:54:18;;;;;;;5.78;4.50;;;;;;;29.65;100.00;95898.47;5106930;27;20110;-64
2023/08/25 09:56:46;;;;;;;11.52;4.90;;;;;;;29.44;100.00;95879.31;5101729;27;20024;-65
2023/08/25 09:59:13;;;;;;;7.07;4.60;;;;;;;29.48;100.00;95871.47;5099031;27;20028;-65
2023/08/25 10:01:41;;;;;;;5.63;5.13;;;;;;;29.65;100.00;95849.63;5100313;27;20111;-65
2023/08/25 10:04:07;;;;;;;5.03;4.63;;;;;;;29.93;100.00;95844.94;5098749;27;20016;-65
2023/08/25 10:06:35;;;;;;;7.88;4.43;;;;;;;30.33;100.00;95825.63;5104096;27;20024;-65
2023/08/25 10:09:01;;;;;;;6.70;4.75;;;;;;;30.49;100.00;95819.19;5107046;27;20075;-65
2023/08/25 10:11:33;;;;;;;5.35;4.50;;;;;;;30.56;100.00;95808.06;5099411;28;20024;-65
2023/08/25 10:14:02;;;;;;;5.45;4.43;;;;;;;30.61;100.00;95804.53;5104228;27;20035;-65
2023/08/25 10:16:31;;;;;;;6.07;4.65;;;;;;;30.76;100.00;95803.81;5099772;27;20515;-65
2023/08/25 10:19:01;;;;;;;4.75;4.10;;;;;;;30.76;100.00;95799.16;5106921;28;20027;-64
2023/08/25 10:21:29;;;;;;;9.45;4.88;;;;;;;30.97;100.00;95802.75;5101045;28;20046;-64
2023/08/25 10:23:57;;;;;;;5.60;4.43;;;;;;;31.01;100.00;95800.28;5101837;27;20876;-65
2023/08/25 10:26:23;;;;;;;8.32;4.10;;;;;;;31.19;100.00;95806.28;5099116;27;20054;-65
2023/08/25 10:28:49;;;;;;;8.95;4.35;;;;;;;31.19;100.00;95793.53;5095441;27;20081;-65
2023/08/25 10:31:15;;;;;;;5.47;3.92;;;;;;;31.29;100.00;95792.75;5096572;28;20020;-65
2023/08/25 10:33:49;;;;;;;5.57;4.65;;;;;;;31.31;100.00;95790.56;5102666;28;20684;-65
2023/08/25 10:36:19;;;;;;;7.90;4.05;;;;;;;31.35;100.00;95786.19;5098972;28;20024;-65
2023/08/25 10:39:06;;;;;;;4.30;3.90;;;;;;;31.61;100.00;95779.91;5106047;27;20024;-66
2023/08/25 10:41:39;;;;;;;6.53;4.18;;;;;;;32.04;100.00;95787.72;5093263;28;20456;-65
2023/08/25 10:44:09;;;;;;;4.78;4.38;;;;;;;32.17;100.00;95784.41;5106073;27;20080;-66
2023/08/25 10:46:34;;;;;;;6.00;3.88;;;;;;;32.29;100.00;95787.63;5104306;27;20024;-66
2023/08/25 10:49:06;;;;;;;5.38;3.65;;;;;;;32.17;100.00;95778.16;5107179;27;20042;-65
2023/08/25 10:51:33;;;;;;;3.90;3.60;;;;;;;32.03;100.00;95781.44;5108069;27;20007;-65
2023/08/25 10:53:59;;;;;;;3.83;3.53;;;;;;;31.95;100.00;95784.75;5103093;28;20103;-65
2023/08/25 10:56:26;;;;;;;4.40;4.00;;;;;;;31.88;100.00;95786.97;5096383;28;20080;-65
2023/08/25 10:59:02;;;;;;;6.95;4.20;;;;;;;31.97;100.00;95793.47;5100517;27;20083;-65
2023/08/25 11:01:37;;;;;;;3.92;3.63;;;;;;;32.12;100.00;95789.88;5100076;28;20039;-65
2023/08/25 11:04:22;;;;;;;7.88;3.67;;;;;;;32.06;100.00;95793.72;5103146;28;20563;-66
2023/08/25 11:06:53;;;;;;;5.28;3.55;;;;;;;32.15;100.00;95802.91;5113764;28;20476;-65
2023/08/25 11:09:18;;;;;;;4.78;3.70;;;;;;;32.27;100.00;95797.97;5099471;28;20481;-65
2023/08/25 11:11:46;;;;;;;4.27;3.87;;;;;;;32.27;100.00;95789.81;5102511;28;20054;-65
2023/08/25 11:14:13;;;;;;;5.07;3.58;;;;;;;32.67;100.00;95781.72;5111363;27;20297;-65
2023/08/25 11:16:42;;;;;;;4.18;3.78;;;;;;;32.77;100.00;95780.84;5100848;27;20028;-65
2023/08/25 11:19:10;;;;;;;4.38;3.97;;;;;;;32.81;100.00;95781.91;5115362;27;20023;-65
2023/08/25 11:21:36;;;;;;;4.45;3.90;;;;;;;32.72;100.00;95784.44;5101943;27;20024;-65
2023/08/25 11:24:02;;;;;;;7.57;4.47;;;;;;;32.38;100.00;95784.34;5105268;27;20028;-65